Time,TemperatureF,DewpointF,PressureIn,WindDirection,WindDirectionDegrees,WindSpeedMPH,WindSpeedGustMPH,Humidity,HourlyPrecipIn,Conditions,Clouds,dailyrainin,SoftwareType,DateUTC
2013-05-06 00:09:00,52.3,48.9,29.72,NNW,337,0.0,-999.0,88,-99.99,,,0.00,Acu-Link.com,2013-05-06 05:09:00,
2013-05-06 00:24:00,52.7,49.2,29.72,North,0,0.0,-999.0,88,-99.99,,,0.00,Acu-Link.com,2013-05-06 05:24:00,
2013-05-06 00:39:00,52.9,49.4,29.73,WNW,292,2.2,-999.0,88,-99.99,,,0.00,Acu-Link.com,2013-05-06 05:39:00,
2013-05-06 00:54:00,53.1,49.6,29.73,NNW,337,0.0,-999.0,88,-99.99,,,0.00,Acu-Link.com,2013-05-06 05:54:00,
2013-05-06 01:10:00,53.1,49.6,29.71,West,270,2.2,-999.0,88,-99.99,,,0.00,Acu-Link.com,2013-05-06 06:10:00,
2013-05-06 01:25:00,53.1,49.6,29.72,NE,45,2.7,-999.0,88,-99.99,,,0.00,Acu-Link.com,2013-05-06 06:25:00,
2013-05-06 01:40:00,53.1,49.6,29.70,WSW,247,0.0,-999.0,88,-99.99,,,0.00,Acu-Link.com,2013-05-06 06:40:00,
2013-05-06 01:55:00,53.1,49.6,29.70,WSW,247,0.0,-999.0,88,-99.99,,,0.00,Acu-Link.com,2013-05-06 06:55:00,
2013-05-06 02:10:00,53.2,49.7,29.70,WSW,247,0.0,-999.0,88,-99.99,,,0.00,Acu-Link.com,2013-05-06 07:10:00,
2013-05-06 02:25:00,53.2,49.7,29.70,East,90,2.2,-999.0,88,-99.99,,,0.00,Acu-Link.com,2013-05-06 07:25:00,
2013-05-06 02:40:00,53.2,49.7,29.71,SSW,202,0.0,-999.0,88,-99.99,,,0.00,Acu-Link.com,2013-05-06 07:40:00,
2013-05-06 02:55:00,53.2,49.7,29.71,SW,225,0.0,-999.0,88,-99.99,,,0.00,Acu-Link.com,2013-05-06 07:55:00,
2013-05-06 03:11:00,53.2,49.7,29.70,NNW,337,0.0,-999.0,88,-99.99,,,0.00,Acu-Link.com,2013-05-06 08:11:00,
2013-05-06 03:26:00,53.2,49.7,29.71,WNW,292,2.2,-999.0,88,-99.99,,,0.00,Acu-Link.com,2013-05-06 08:26:00,
2013-05-06 03:41:00,53.4,49.9,29.71,WSW,247,0.0,-999.0,88,-99.99,,,0.00,Acu-Link.com,2013-05-06 08:41:00,
2013-05-06 03:56:00,53.4,49.9,29.71,WNW,292,0.0,-999.0,88,-99.99,,,0.00,Acu-Link.com,2013-05-06 08:56:00,
2013-05-06 04:11:00,53.4,49.9,29.70,NNW,337,0.0,-999.0,88,-99.99,,,0.00,Acu-Link.com,2013-05-06 09:11:00,
2013-05-06 04:26:00,53.4,49.9,29.71,WNW,292,0.0,-999.0,88,-99.99,,,0.00,Acu-Link.com,2013-05-06 09:26:00,
2013-05-06 04:41:00,53.4,49.9,29.71,South,180,0.0,-999.0,88,-99.99,,,0.00,Acu-Link.com,2013-05-06 09:41:00,
2013-05-06 04:57:00,53.6,50.1,29.72,West,270,0.0,-999.0,88,-99.99,,,0.00,Acu-Link.com,2013-05-06 09:57:00,
2013-05-06 05:12:00,53.4,49.9,29.71,NNW,337,0.0,-999.0,88,-99.99,,,0.00,Acu-Link.com,2013-05-06 10:12:00,
2013-05-06 05:27:00,53.4,49.9,29.71,NW,315,0.0,-999.0,88,-99.99,,,0.00,Acu-Link.com,2013-05-06 10:27:00,
2013-05-06 05:42:00,53.4,49.9,29.70,SE,135,0.0,-999.0,88,-99.99,,,0.00,Acu-Link.com,2013-05-06 10:42:00,
2013-05-06 05:57:00,53.1,49.6,29.70,SE,135,0.0,-999.0,88,-99.99,,,0.00,Acu-Link.com,2013-05-06 10:57:00,
2013-05-06 06:12:00,52.5,49.0,29.71,NNE,22,0.0,-999.0,88,-99.99,,,0.00,Acu-Link.com,2013-05-06 11:12:00,
2013-05-06 06:27:00,53.1,49.3,29.71,NNE,22,0.0,-999.0,87,-99.99,,,0.00,Acu-Link.com,2013-05-06 11:27:00,
2013-05-06 06:43:00,54.1,50.0,29.71,SSW,202,0.0,-999.0,86,-99.99,,,0.00,Acu-Link.com,2013-05-06 11:43:00,
2013-05-06 06:58:00,54.7,50.9,29.72,West,270,0.0,-999.0,87,-99.99,,,0.00,Acu-Link.com,2013-05-06 11:58:00,
2013-05-06 07:13:00,54.9,51.1,29.72,NNE,22,0.0,-999.0,87,-99.99,,,0.00,Acu-Link.com,2013-05-06 12:13:00,
2013-05-06 07:28:00,55.0,51.2,29.73,WNW,292,0.0,-999.0,87,-99.99,,,0.00,Acu-Link.com,2013-05-06 12:28:00,
2013-05-06 07:43:00,55.2,51.4,29.73,NW,315,0.0,-999.0,87,-99.99,,,0.00,Acu-Link.com,2013-05-06 12:43:00,
2013-05-06 07:58:00,55.4,51.6,29.73,NW,315,0.0,-999.0,87,-99.99,,,0.00,Acu-Link.com,2013-05-06 12:58:00,
2013-05-06 08:13:00,55.4,51.6,29.72,WNW,292,0.0,-999.0,87,-99.99,,,0.00,Acu-Link.com,2013-05-06 13:13:00,
2013-05-06 08:28:00,55.8,52.0,29.74,NNW,337,0.0,-999.0,87,-99.99,,,0.00,Acu-Link.com,2013-05-06 13:28:00,
2013-05-06 08:43:00,55.8,52.0,29.74,SW,225,1.1,-999.0,87,-99.99,,,0.00,Acu-Link.com,2013-05-06 13:43:00,
2013-05-06 08:59:00,56.5,52.7,29.74,East,90,2.2,-999.0,87,-99.99,,,0.00,Acu-Link.com,2013-05-06 13:59:00,
2013-05-06 09:14:00,56.8,53.0,29.74,WNW,292,0.0,-999.0,87,-99.99,,,0.00,Acu-Link.com,2013-05-06 14:14:00,
2013-05-06 09:29:00,57.0,53.5,29.74,ESE,112,0.0,-999.0,88,-99.99,,,0.00,Acu-Link.com,2013-05-06 14:29:00,
2013-05-06 09:44:00,57.6,53.4,29.73,NW,315,0.0,-999.0,86,-99.99,,,0.01,Acu-Link.com,2013-05-06 14:44:00,
2013-05-06 09:59:00,58.3,54.1,29.74,West,270,3.2,-999.0,86,-99.99,,,0.01,Acu-Link.com,2013-05-06 14:59:00,
2013-05-06 10:14:00,59.9,55.1,29.74,ENE,67,4.2,-999.0,84,-99.99,,,0.01,Acu-Link.com,2013-05-06 15:14:00,
2013-05-06 10:29:00,60.8,54.2,29.74,NNE,22,3.7,-999.0,79,-99.99,,,0.01,Acu-Link.com,2013-05-06 15:29:00,
2013-05-06 10:44:00,60.8,54.2,29.74,NW,315,3.7,-999.0,79,-99.99,,,0.01,Acu-Link.com,2013-05-06 15:44:00,
2013-05-06 10:59:00,60.4,54.2,29.74,North,0,2.7,-999.0,80,-99.99,,,0.01,Acu-Link.com,2013-05-06 15:59:00,
2013-05-06 11:15:00,61.2,54.3,29.74,NNE,22,2.2,-999.0,78,-99.99,,,0.01,Acu-Link.com,2013-05-06 16:15:00,
2013-05-06 11:30:00,61.0,54.1,29.74,NNE,22,4.2,-999.0,78,-99.99,,,0.01,Acu-Link.com,2013-05-06 16:30:00,
2013-05-06 11:45:00,59.2,53.4,29.75,NNE,22,5.3,-999.0,81,-99.99,,,0.01,Acu-Link.com,2013-05-06 16:45:00,
2013-05-06 12:00:00,58.3,53.5,29.75,NNW,337,3.2,-999.0,84,-99.99,,,0.01,Acu-Link.com,2013-05-06 17:00:00,
2013-05-06 12:15:00,62.8,56.5,29.74,NE,45,3.7,-999.0,80,-99.99,,,0.01,Acu-Link.com,2013-05-06 17:15:00,
2013-05-06 12:30:00,62.6,55.3,29.74,WNW,292,4.2,-999.0,77,-99.99,,,0.01,Acu-Link.com,2013-05-06 17:30:00,
2013-05-06 12:45:00,61.7,53.7,29.74,NNE,22,4.2,-999.0,75,-99.99,,,0.01,Acu-Link.com,2013-05-06 17:45:00,
2013-05-06 13:00:00,63.1,55.4,29.74,West,270,2.7,-999.0,76,-99.99,,,0.01,Acu-Link.com,2013-05-06 18:00:00,
2013-05-06 13:15:00,64.6,55.0,29.73,NNE,22,3.7,-999.0,71,-99.99,,,0.01,Acu-Link.com,2013-05-06 18:15:00,
2013-05-06 13:31:00,62.8,53.6,29.74,West,270,4.2,-999.0,72,-99.99,,,0.01,Acu-Link.com,2013-05-06 18:31:00,
2013-05-06 13:46:00,63.0,53.8,29.75,ENE,67,5.3,-999.0,72,-99.99,,,0.01,Acu-Link.com,2013-05-06 18:46:00,
2013-05-06 14:01:00,63.5,53.5,29.74,WNW,292,3.7,-999.0,70,-99.99,,,0.01,Acu-Link.com,2013-05-06 19:01:00,
2013-05-06 14:16:00,65.3,55.3,29.74,NW,315,2.7,-999.0,70,-99.99,,,0.01,Acu-Link.com,2013-05-06 19:16:00,
2013-05-06 14:31:00,66.0,55.1,29.74,WSW,247,8.3,-999.0,68,-99.99,,,0.01,Acu-Link.com,2013-05-06 19:31:00,
2013-05-06 14:46:00,65.7,55.2,29.74,NNE,22,6.8,-999.0,69,-99.99,,,0.01,Acu-Link.com,2013-05-06 19:46:00,
2013-05-06 15:01:00,64.2,55.0,29.74,NNE,22,3.7,-999.0,72,-99.99,,,0.01,Acu-Link.com,2013-05-06 20:01:00,
2013-05-06 15:16:00,64.2,55.7,29.73,WSW,247,2.2,-999.0,74,-99.99,,,0.01,Acu-Link.com,2013-05-06 20:16:00,
2013-05-06 15:31:00,64.8,55.6,29.74,West,270,7.8,-999.0,72,-99.99,,,0.01,Acu-Link.com,2013-05-06 20:31:00,
2013-05-06 15:47:00,64.9,55.3,29.73,NW,315,2.7,-999.0,71,-99.99,,,0.01,Acu-Link.com,2013-05-06 20:47:00,
2013-05-06 16:02:00,64.4,55.2,29.73,WSW,247,3.7,-999.0,72,-99.99,,,0.01,Acu-Link.com,2013-05-06 21:02:00,
2013-05-06 16:17:00,64.4,55.6,29.73,NW,315,1.7,-999.0,73,-99.99,,,0.01,Acu-Link.com,2013-05-06 21:17:00,
2013-05-06 16:32:00,63.5,55.1,29.73,East,90,1.7,-999.0,74,-99.99,,,0.01,Acu-Link.com,2013-05-06 21:32:00,
2013-05-06 16:47:00,63.0,55.7,29.74,WNW,292,5.3,-999.0,77,-99.99,,,0.01,Acu-Link.com,2013-05-06 21:47:00,
2013-05-06 17:02:00,63.9,55.4,29.74,NNW,337,3.7,-999.0,74,-99.99,,,0.01,Acu-Link.com,2013-05-06 22:02:00,
2013-05-06 17:17:00,64.0,55.5,29.74,NW,315,2.2,-999.0,74,-99.99,,,0.01,Acu-Link.com,2013-05-06 22:17:00,
2013-05-06 17:32:00,62.8,56.2,29.74,ENE,67,3.7,-999.0,79,-99.99,,,0.01,Acu-Link.com,2013-05-06 22:32:00,
2013-05-06 17:47:00,61.9,56.0,29.75,West,270,2.2,-999.0,81,-99.99,,,0.01,Acu-Link.com,2013-05-06 22:47:00,
2013-05-06 18:03:00,61.7,56.1,29.75,SW,225,1.7,-999.0,82,-99.99,,,0.01,Acu-Link.com,2013-05-06 23:03:00,
2013-05-06 18:18:00,61.7,56.1,29.75,NW,315,0.0,-999.0,82,-99.99,,,0.01,Acu-Link.com,2013-05-06 23:18:00,
2013-05-06 18:33:00,62.1,56.5,29.75,West,270,0.0,-999.0,82,-99.99,,,0.01,Acu-Link.com,2013-05-06 23:33:00,
2013-05-06 18:48:00,62.2,56.3,29.75,NW,315,0.0,-999.0,81,-99.99,,,0.01,Acu-Link.com,2013-05-06 23:48:00,
2013-05-06 19:03:00,62.2,56.3,29.75,NNW,337,0.0,-999.0,81,-99.99,,,0.01,Acu-Link.com,2013-05-07 00:03:00,
2013-05-06 19:18:00,61.7,56.1,29.76,NNW,337,0.0,-999.0,82,-99.99,,,0.01,Acu-Link.com,2013-05-07 00:18:00,
2013-05-06 19:33:00,60.4,55.2,29.76,NNW,337,0.0,-999.0,83,-99.99,,,0.01,Acu-Link.com,2013-05-07 00:33:00,
2013-05-06 19:48:00,59.7,55.5,29.77,NNW,337,0.0,-999.0,86,-99.99,,,0.01,Acu-Link.com,2013-05-07 00:48:00,
2013-05-06 20:03:00,58.6,54.4,29.77,NNW,337,0.0,-999.0,86,-99.99,,,0.01,Acu-Link.com,2013-05-07 01:03:00,
2013-05-06 20:18:00,57.9,54.1,29.77,NNW,337,0.0,-999.0,87,-99.99,,,0.01,Acu-Link.com,2013-05-07 01:18:00,
2013-05-06 20:34:00,57.0,53.5,29.77,NNW,337,0.0,-999.0,88,-99.99,,,0.01,Acu-Link.com,2013-05-07 01:34:00,
2013-05-06 20:49:00,56.5,53.0,29.77,NNW,337,0.0,-999.0,88,-99.99,,,0.01,Acu-Link.com,2013-05-07 01:49:00,
2013-05-06 21:04:00,56.1,52.6,29.78,NNW,337,0.0,-999.0,88,-99.99,,,0.01,Acu-Link.com,2013-05-07 02:04:00,
2013-05-06 21:19:00,55.4,51.9,29.78,NNW,337,0.0,-999.0,88,-99.99,,,0.01,Acu-Link.com,2013-05-07 02:19:00,
2013-05-06 21:34:00,55.0,51.5,29.78,NNW,337,0.0,-999.0,88,-99.99,,,0.01,Acu-Link.com,2013-05-07 02:34:00,
2013-05-06 21:49:00,55.0,51.5,29.79,NNW,337,0.0,-999.0,88,-99.99,,,0.01,Acu-Link.com,2013-05-07 02:49:00,
2013-05-06 22:04:00,55.0,51.5,29.78,NW,315,0.0,-999.0,88,-99.99,,,0.01,Acu-Link.com,2013-05-07 03:04:00,
2013-05-06 22:19:00,55.6,52.7,29.79,NW,315,0.0,-999.0,90,-99.99,,,0.01,Acu-Link.com,2013-05-07 03:19:00,
2013-05-06 22:34:00,55.8,53.2,29.78,NW,315,0.0,-999.0,91,-99.99,,,0.01,Acu-Link.com,2013-05-07 03:34:00,
2013-05-06 22:50:00,55.6,53.0,29.79,ENE,67,0.0,-999.0,91,-99.99,,,0.01,Acu-Link.com,2013-05-07 03:50:00,
2013-05-06 23:05:00,55.4,52.8,29.78,ENE,67,0.0,-999.0,91,-99.99,,,0.01,Acu-Link.com,2013-05-07 04:05:00,
2013-05-06 23:20:00,54.7,52.1,29.79,ENE,67,0.0,-999.0,91,-99.99,,,0.01,Acu-Link.com,2013-05-07 04:20:00,
2013-05-06 23:35:00,54.5,51.9,29.79,ENE,67,0.0,-999.0,91,-99.99,,,0.01,Acu-Link.com,2013-05-07 04:35:00,
2013-05-06 23:50:00,54.3,52.0,29.79,ENE,67,0.0,-999.0,92,-99.99,,,0.01,Acu-Link.com,2013-05-07 04:50:00,